Albia, New York
Current Conditions -  °F | °C
As of 4:51 AM on Wednesday 22 Oct 2014 (Local Time) from KALB Reporting Station
Overcast Overcast  
Wind Chill: 50°   Ceiling: 1000
Heat Index: 50°   Visibility: 10mi
Dew Point: 46°   Wind: 12mph
Humidity: 86%   Direction: 10°N
Pressure: 30.03"   Gusts: NA
Location:  42.7478°N, 73.6049°W
Report Text: KALB 220851Z 01010KT 10SM BKN010 OVC025 10/08 A3003 RMK AO2 SLP168 BKN V OVC T01000078 51006
Loading
Personal Weather Stations






























Interactive Weather Map
Tropical Storm Tracking
New forecast layout! Learn more

10-Day Weather Forecast

Advertisements
Track Severe Weather on mobile